createdAt,value
2022-08-11T00:00:34.755Z,18.80
2022-08-11T00:03:10.142Z,18.80
2022-08-11T00:05:47.856Z,18.70
2022-08-11T00:08:23.170Z,18.60
2022-08-11T00:10:57.435Z,18.50
2022-08-11T00:13:36.869Z,18.50
2022-08-11T00:16:05.371Z,18.40
2022-08-11T00:18:40.475Z,18.40
2022-08-11T00:21:08.303Z,18.30
2022-08-11T00:23:39.470Z,18.30
2022-08-11T00:26:07.676Z,18.20
2022-08-11T00:28:35.411Z,18.20
2022-08-11T00:31:04.737Z,18.10
2022-08-11T00:33:41.299Z,18.10
2022-08-11T00:36:14.779Z,18.00
2022-08-11T00:38:43.553Z,17.90
2022-08-11T00:41:31.303Z,17.90
2022-08-11T00:44:08.091Z,17.80
2022-08-11T00:46:42.610Z,17.80
2022-08-11T00:49:16.181Z,17.70
2022-08-11T00:52:19.056Z,17.70
2022-08-11T00:55:04.614Z,17.60
2022-08-11T00:57:51.209Z,17.60
2022-08-11T01:00:25.415Z,17.60
2022-08-11T01:03:07.840Z,17.50
2022-08-11T01:05:41.202Z,17.50
2022-08-11T01:08:27.290Z,17.40
2022-08-11T01:11:02.836Z,17.40
2022-08-11T01:13:42.874Z,17.30
2022-08-11T01:16:32.998Z,17.30
2022-08-11T01:19:19.276Z,17.30
2022-08-11T01:22:03.731Z,17.20
2022-08-11T01:24:57.825Z,17.20
2022-08-11T01:27:33.244Z,17.20
2022-08-11T01:30:10.301Z,17.10
2022-08-11T01:32:46.665Z,17.10
2022-08-11T01:35:20.936Z,17.00
2022-08-11T01:38:06.893Z,17.00
2022-08-11T01:40:52.419Z,16.90
2022-08-11T01:43:52.276Z,16.90
2022-08-11T01:46:22.774Z,16.80
2022-08-11T01:49:02.294Z,16.80
2022-08-11T01:52:03.127Z,16.80
2022-08-11T01:54:56.899Z,16.70
2022-08-11T01:57:47.621Z,16.70
2022-08-11T02:00:16.693Z,16.70
2022-08-11T02:02:56.046Z,16.60
2022-08-11T02:05:27.496Z,16.60
2022-08-11T02:07:58.220Z,16.60
2022-08-11T02:10:54.636Z,16.50
2022-08-11T02:13:41.637Z,16.50
2022-08-11T02:16:30.918Z,16.40
2022-08-11T02:19:30.577Z,16.40
2022-08-11T02:22:21.974Z,16.40
2022-08-11T02:25:12.742Z,16.30
2022-08-11T02:27:51.494Z,16.30
2022-08-11T02:30:24.282Z,16.30
2022-08-11T02:33:27.517Z,16.20
2022-08-11T02:36:03.859Z,16.20
2022-08-11T02:38:35.755Z,16.20
2022-08-11T02:41:40.082Z,16.30
2022-08-11T02:44:26.122Z,16.20
2022-08-11T02:46:54.105Z,16.20
2022-08-11T02:50:06.326Z,16.10
2022-08-11T02:52:52.371Z,16.10
2022-08-11T02:55:57.576Z,16.10
2022-08-11T02:58:35.587Z,16.10
2022-08-11T03:01:15.021Z,16.00
2022-08-11T03:04:03.857Z,16.00
2022-08-11T03:06:36.837Z,15.90
2022-08-11T03:09:07.314Z,15.90
2022-08-11T03:11:53.202Z,15.80
2022-08-11T03:14:48.420Z,15.80
2022-08-11T03:17:15.812Z,15.80
2022-08-11T03:19:43.150Z,15.70
2022-08-11T03:22:22.781Z,15.70
2022-08-11T03:25:16.598Z,15.70
2022-08-11T03:27:58.016Z,15.60
2022-08-11T03:30:30.282Z,15.60
2022-08-11T03:33:35.527Z,15.60
2022-08-11T03:36:03.006Z,15.50
2022-08-11T03:38:36.349Z,15.40
2022-08-11T03:42:03.542Z,15.40
2022-08-11T03:44:25.908Z,15.40
2022-08-11T03:47:03.626Z,15.40
2022-08-11T03:49:39.216Z,15.30
2022-08-11T03:52:13.121Z,15.30
2022-08-11T03:54:40.865Z,15.30
2022-08-11T03:57:17.290Z,15.20
2022-08-11T04:00:13.199Z,15.20
2022-08-11T04:02:52.995Z,15.20
2022-08-11T04:05:44.696Z,15.20
2022-08-11T04:08:34.352Z,15.10
2022-08-11T04:11:20.506Z,15.10
2022-08-11T04:14:25.246Z,15.10
2022-08-11T04:16:58.785Z,15.10
2022-08-11T04:19:44.999Z,15.00
2022-08-11T04:22:21.358Z,15.00
2022-08-11T04:25:08.248Z,14.90
2022-08-11T04:27:54.596Z,14.90
2022-08-11T04:30:41.400Z,14.90
2022-08-11T04:33:18.075Z,14.90
2022-08-11T04:35:53.641Z,14.80
2022-08-11T04:38:39.895Z,14.80
2022-08-11T04:41:14.391Z,14.80
2022-08-11T04:44:05.555Z,14.80
2022-08-11T04:46:33.633Z,14.70
2022-08-11T04:49:33.118Z,14.70
2022-08-11T04:52:39.391Z,14.70
2022-08-11T04:55:44.570Z,14.70
2022-08-11T04:58:38.130Z,14.70
2022-08-11T05:01:33.980Z,14.70
2022-08-11T05:04:40.281Z,14.60
2022-08-11T05:07:26.088Z,14.60
2022-08-11T05:10:03.213Z,14.60
2022-08-11T05:12:41.832Z,14.60
2022-08-11T05:15:42.685Z,14.60
2022-08-11T05:18:34.970Z,14.60
2022-08-11T05:21:25.415Z,14.60
2022-08-11T05:24:17.097Z,14.60
2022-08-11T05:27:11.352Z,14.60
2022-08-11T05:30:26.120Z,14.60
2022-08-11T05:33:21.142Z,14.60
2022-08-11T05:36:01.223Z,14.70
2022-08-11T05:38:49.521Z,14.70
2022-08-11T05:41:37.989Z,14.70
2022-08-11T05:44:24.187Z,14.80
2022-08-11T05:47:10.803Z,14.80
2022-08-11T05:49:58.409Z,14.80
2022-08-11T05:52:46.978Z,14.90
2022-08-11T05:55:35.225Z,14.90
2022-08-11T05:58:04.107Z,15.00
2022-08-11T06:00:32.263Z,15.00
2022-08-11T06:03:04.038Z,15.10
2022-08-11T06:05:43.676Z,15.10
2022-08-11T06:08:12.832Z,15.20
2022-08-11T06:10:42.392Z,15.30
2022-08-11T06:13:10.349Z,15.30
2022-08-11T06:16:06.977Z,15.40
2022-08-11T06:18:35.158Z,15.40
2022-08-11T06:21:08.681Z,15.50
2022-08-11T06:23:38.212Z,15.60
2022-08-11T06:26:09.703Z,15.60
2022-08-11T06:28:40.505Z,15.70
2022-08-11T06:31:15.231Z,15.80
2022-08-11T06:33:57.570Z,15.80
2022-08-11T06:36:43.866Z,15.90
2022-08-11T06:39:17.258Z,16.00
2022-08-11T06:41:44.759Z,16.10
2022-08-11T06:44:13.080Z,16.20
2022-08-11T06:46:41.765Z,16.30
2022-08-11T06:49:28.507Z,16.40
2022-08-11T06:52:06.218Z,16.50
2022-08-11T06:54:41.535Z,16.60
2022-08-11T06:57:31.209Z,16.70
2022-08-11T07:00:20.941Z,16.80
2022-08-11T07:02:54.280Z,17.00
2022-08-11T07:05:25.343Z,17.10
2022-08-11T07:08:33.694Z,17.20
2022-08-11T07:11:26.723Z,17.40
2022-08-11T07:14:14.606Z,17.50
2022-08-11T07:16:44.477Z,17.60
2022-08-11T07:19:30.618Z,17.80
2022-08-11T07:22:20.957Z,17.90
2022-08-11T07:25:13.830Z,18.10
2022-08-11T07:28:02.010Z,18.20
2022-08-11T07:30:30.185Z,18.40
2022-08-11T07:32:59.593Z,18.60
2022-08-11T07:35:47.404Z,18.70
2022-08-11T07:38:22.170Z,18.90
2022-08-11T07:40:51.015Z,19.00
2022-08-11T07:43:18.681Z,19.10
2022-08-11T07:46:05.018Z,19.30
2022-08-11T07:48:52.475Z,19.40
2022-08-11T07:51:39.478Z,19.60
2022-08-11T07:54:16.654Z,19.70
2022-08-11T07:56:55.223Z,19.90
2022-08-11T07:59:59.949Z,20.00
2022-08-11T08:02:59.229Z,20.20
2022-08-11T08:05:45.628Z,20.40
2022-08-11T08:08:32.905Z,20.50
2022-08-11T08:11:22.530Z,20.50
2022-08-11T08:14:13.399Z,20.70
2022-08-11T08:16:59.797Z,20.80
2022-08-11T08:19:27.441Z,20.90
2022-08-11T08:21:55.147Z,21.00
2022-08-11T08:24:41.876Z,21.00
2022-08-11T08:27:12.458Z,21.20
2022-08-11T08:29:59.469Z,21.30
2022-08-11T08:32:28.008Z,21.40
2022-08-11T08:34:57.103Z,21.50
2022-08-11T08:37:45.334Z,21.50
2022-08-11T08:40:14.796Z,21.60
2022-08-11T08:42:45.968Z,21.80
2022-08-11T08:45:16.006Z,21.90
2022-08-11T08:47:47.001Z,22.00
2022-08-11T08:50:27.552Z,22.00
2022-08-11T08:53:01.050Z,22.20
2022-08-11T08:55:29.133Z,22.20
2022-08-11T08:58:00.614Z,22.30
2022-08-11T09:00:38.901Z,22.40
2022-08-11T09:03:36.022Z,22.40
2022-08-11T09:05:55.042Z,22.50
2022-08-11T09:08:23.143Z,22.60
2022-08-11T09:11:13.873Z,22.70
2022-08-11T09:13:44.523Z,22.80
2022-08-11T09:16:12.947Z,22.90
2022-08-11T09:18:44.617Z,23.00
2022-08-11T09:21:14.797Z,23.10
2022-08-11T09:24:26.107Z,23.20
2022-08-11T09:27:00.070Z,23.30
2022-08-11T09:29:28.975Z,23.40
2022-08-11T09:31:57.056Z,23.60
2022-08-11T09:34:26.356Z,23.60
2022-08-11T09:37:13.023Z,23.80
2022-08-11T09:40:00.515Z,23.80
2022-08-11T09:42:48.080Z,23.90
2022-08-11T09:45:16.489Z,24.10
2022-08-11T09:47:44.957Z,24.20
2022-08-11T09:50:15.030Z,24.30
2022-08-11T09:53:09.945Z,24.50
2022-08-11T09:55:36.274Z,24.70
2022-08-11T09:58:43.006Z,24.90
2022-08-11T10:01:07.969Z,25.00
2022-08-11T10:03:40.322Z,25.20
2022-08-11T10:06:34.140Z,25.30
2022-08-11T10:09:05.407Z,25.50
2022-08-11T10:11:34.601Z,25.60
2022-08-11T10:14:33.777Z,25.70
2022-08-11T10:17:06.937Z,25.90
2022-08-11T10:19:38.518Z,26.20
2022-08-11T10:22:27.862Z,26.30
2022-08-11T10:25:19.627Z,26.40
2022-08-11T10:28:33.057Z,26.60
2022-08-11T10:31:04.244Z,26.80
2022-08-11T10:33:58.961Z,26.90
2022-08-11T10:36:34.401Z,27.10
2022-08-11T10:39:03.575Z,27.20
2022-08-11T10:42:02.785Z,27.40
2022-08-11T10:44:38.238Z,27.50
2022-08-11T10:47:24.737Z,27.60
2022-08-11T10:50:12.869Z,27.80
2022-08-11T10:52:59.944Z,27.90
2022-08-11T10:55:46.966Z,28.00
2022-08-11T10:58:34.064Z,28.10
2022-08-11T11:01:02.453Z,28.20
2022-08-11T11:03:30.863Z,28.30
2022-08-11T11:06:27.778Z,28.40
2022-08-11T11:08:58.814Z,28.60
2022-08-11T11:11:51.655Z,28.80
2022-08-11T11:14:45.840Z,29.00
2022-08-11T11:17:46.685Z,29.20
2022-08-11T11:20:36.525Z,29.30
2022-08-11T11:23:10.367Z,29.40
2022-08-11T11:26:12.765Z,29.40
2022-08-11T11:28:49.100Z,29.40
2022-08-11T11:31:39.823Z,29.40
2022-08-11T11:34:13.416Z,29.40
2022-08-11T11:36:40.774Z,29.40
2022-08-11T11:39:08.854Z,29.50
2022-08-11T11:41:36.639Z,29.70
2022-08-11T11:44:04.546Z,29.90
2022-08-11T11:46:32.293Z,30.10
2022-08-11T11:49:16.711Z,30.30
2022-08-11T11:51:45.865Z,30.60
2022-08-11T11:54:17.841Z,30.80
2022-08-11T11:56:46.094Z,31.10
2022-08-11T11:59:32.693Z,31.30
2022-08-11T12:02:00.821Z,31.60
2022-08-11T12:04:43.548Z,31.90
2022-08-11T12:07:30.651Z,32.10
2022-08-11T12:09:58.595Z,32.50
2022-08-11T12:12:44.663Z,32.70
2022-08-11T12:15:12.877Z,32.90
2022-08-11T12:17:40.683Z,33.00
2022-08-11T12:20:31.674Z,33.20
2022-08-11T12:23:15.253Z,33.40
2022-08-11T12:26:26.018Z,33.60
2022-08-11T12:28:50.702Z,33.70
2022-08-11T12:31:22.176Z,33.90
2022-08-11T12:33:50.423Z,34.20
2022-08-11T12:36:18.804Z,34.40
2022-08-11T12:38:51.323Z,34.60
2022-08-11T12:41:39.558Z,34.90
2022-08-11T12:44:27.710Z,35.10
2022-08-11T12:46:57.860Z,35.30
2022-08-11T12:49:45.677Z,35.60
2022-08-11T12:52:18.962Z,35.70
2022-08-11T12:55:06.620Z,35.90
2022-08-11T12:57:57.727Z,36.10
2022-08-11T13:00:45.260Z,36.30
2022-08-11T13:03:32.122Z,36.30
2022-08-11T13:06:00.914Z,36.50
2022-08-11T13:08:31.799Z,36.50
2022-08-11T13:11:19.189Z,36.50
2022-08-11T13:13:54.542Z,36.60
2022-08-11T13:16:26.546Z,36.50
2022-08-11T13:18:54.602Z,36.60
2022-08-11T13:21:22.877Z,36.70
2022-08-11T13:23:59.413Z,36.60
2022-08-11T13:26:43.423Z,36.70
2022-08-11T13:29:20.212Z,36.80
2022-08-11T13:31:48.287Z,37.00
2022-08-11T13:34:17.044Z,37.00
2022-08-11T13:36:45.561Z,37.10
2022-08-11T13:39:13.490Z,37.30
2022-08-11T13:41:45.153Z,37.40
2022-08-11T13:44:15.892Z,37.60
2022-08-11T13:46:46.091Z,37.70
2022-08-11T13:49:17.551Z,37.80
2022-08-11T13:51:45.128Z,37.90
2022-08-11T13:54:18.983Z,38.00
2022-08-11T13:56:48.116Z,38.00
2022-08-11T13:59:23.022Z,38.00
2022-08-11T14:02:22.364Z,38.10
2022-08-11T14:04:54.225Z,38.30
2022-08-11T14:07:23.583Z,38.40
2022-08-11T14:09:56.759Z,38.30
2022-08-11T14:12:48.429Z,38.40
2022-08-11T14:15:20.225Z,38.40
2022-08-11T14:17:53.817Z,38.40
2022-08-11T14:20:39.693Z,38.50
2022-08-11T14:23:10.974Z,38.60
2022-08-11T14:26:02.302Z,38.80
2022-08-11T14:28:37.382Z,39.10
2022-08-11T14:31:08.604Z,39.30
2022-08-11T14:33:57.924Z,39.00
2022-08-11T14:36:25.747Z,38.70
2022-08-11T14:38:53.978Z,38.50
2022-08-11T14:42:10.483Z,38.50
2022-08-11T14:44:49.158Z,38.40
2022-08-11T14:47:23.843Z,38.30
2022-08-11T14:49:58.287Z,38.30
2022-08-11T14:52:37.815Z,38.30
2022-08-11T14:55:24.327Z,38.40
2022-08-11T14:57:55.371Z,38.40
2022-08-11T15:00:24.844Z,38.50
2022-08-11T15:03:12.113Z,38.50
2022-08-11T15:05:56.544Z,38.60
2022-08-11T15:08:50.105Z,38.80
2022-08-11T15:11:36.784Z,38.80
2022-08-11T15:14:06.058Z,38.80
2022-08-11T15:16:52.582Z,39.00
2022-08-11T15:19:21.285Z,39.00
2022-08-11T15:22:07.973Z,38.90
2022-08-11T15:24:37.523Z,38.70
2022-08-11T15:27:26.592Z,38.50
2022-08-11T15:30:33.825Z,38.60
2022-08-11T15:33:23.332Z,38.80
2022-08-11T15:36:10.507Z,38.90
2022-08-11T15:38:41.644Z,39.00
2022-08-11T15:41:29.036Z,39.10
2022-08-11T15:44:14.952Z,39.20
2022-08-11T15:46:44.662Z,39.30
2022-08-11T15:49:22.111Z,39.40
2022-08-11T15:52:01.796Z,39.20
2022-08-11T15:54:31.909Z,38.90
2022-08-11T15:57:01.856Z,38.60
2022-08-11T15:59:50.646Z,38.20
2022-08-11T16:02:43.796Z,38.10
2022-08-11T16:05:13.947Z,37.90
2022-08-11T16:08:02.056Z,37.70
2022-08-11T16:10:33.150Z,37.70
2022-08-11T16:13:22.547Z,37.40
2022-08-11T16:16:10.047Z,37.30
2022-08-11T16:18:43.527Z,36.80
2022-08-11T16:21:33.889Z,36.40
2022-08-11T16:27:05.148Z,36.00
2022-08-11T16:27:12.450Z,35.60
2022-08-11T16:29:43.797Z,35.20
2022-08-11T16:32:20.749Z,34.90
2022-08-11T16:35:08.887Z,34.50
2022-08-11T16:37:55.935Z,34.10
2022-08-11T16:40:24.032Z,33.70
2022-08-11T16:43:11.673Z,33.30
2022-08-11T16:45:59.158Z,33.10
2022-08-11T16:48:37.541Z,32.90
2022-08-11T16:51:10.489Z,32.70
2022-08-11T16:53:50.627Z,32.60
2022-08-11T16:56:32.925Z,32.50
2022-08-11T16:59:14.686Z,32.20
2022-08-11T17:01:43.413Z,32.10
2022-08-11T17:04:35.803Z,31.90
2022-08-11T17:07:42.433Z,31.80
2022-08-11T17:10:51.542Z,31.70
2022-08-11T17:13:23.923Z,31.50
2022-08-11T17:16:07.460Z,31.40
2022-08-11T17:18:40.307Z,31.30
2022-08-11T17:21:08.354Z,31.30
2022-08-11T17:23:50.602Z,31.20
2022-08-11T17:26:20.046Z,31.20
2022-08-11T17:28:51.446Z,31.20
2022-08-11T17:31:41.729Z,31.10
2022-08-11T17:34:27.772Z,31.00
2022-08-11T17:36:55.750Z,31.00
2022-08-11T17:39:25.294Z,30.90
2022-08-11T17:42:11.708Z,30.80
2022-08-11T17:44:58.973Z,30.70
2022-08-11T17:47:45.799Z,30.60
2022-08-11T17:50:17.859Z,30.60
2022-08-11T17:53:05.199Z,30.40
2022-08-11T17:55:53.500Z,30.40
2022-08-11T17:58:40.626Z,30.30
2022-08-11T18:01:10.060Z,30.20
2022-08-11T18:03:40.580Z,30.00
2022-08-11T18:06:13.265Z,29.90
2022-08-11T18:09:01.753Z,29.80
2022-08-11T18:12:06.788Z,29.70
2022-08-11T18:14:56.688Z,29.50
2022-08-11T18:17:43.039Z,29.40
2022-08-11T18:20:29.292Z,29.30
2022-08-11T18:23:16.047Z,29.20
2022-08-11T18:26:07.024Z,29.10
2022-08-11T18:29:00.255Z,29.00
2022-08-11T18:31:46.688Z,28.90
2022-08-11T18:34:35.475Z,28.70
2022-08-11T18:37:32.746Z,28.70
2022-08-11T18:40:29.700Z,28.60
2022-08-11T18:43:16.815Z,28.50
2022-08-11T18:46:06.930Z,28.40
2022-08-11T18:48:55.060Z,28.30
2022-08-11T18:51:42.773Z,28.20
2022-08-11T18:54:30.173Z,28.00
2022-08-11T18:57:18.075Z,27.80
2022-08-11T19:00:05.007Z,27.70
2022-08-11T19:02:54.134Z,27.50
2022-08-11T19:06:05.897Z,27.40
2022-08-11T19:08:48.881Z,27.30
2022-08-11T19:11:42.753Z,27.10
2022-08-11T19:14:33.238Z,27.00
2022-08-11T19:17:42.950Z,26.90
2022-08-11T19:20:29.390Z,26.80
2022-08-11T19:23:15.691Z,26.60
2022-08-11T19:26:02.503Z,26.50
2022-08-11T19:28:49.420Z,26.40
2022-08-11T19:31:37.175Z,26.30
2022-08-11T19:34:25.552Z,26.20
2022-08-11T19:37:12.670Z,26.10
2022-08-11T19:40:09.272Z,25.90
2022-08-11T19:42:55.424Z,25.80
2022-08-11T19:45:41.776Z,25.70
2022-08-11T19:48:32.678Z,25.60
2022-08-11T19:51:19.418Z,25.40
2022-08-11T19:54:06.631Z,25.30
2022-08-11T19:56:53.654Z,25.10
2022-08-11T19:59:41.784Z,25.00
2022-08-11T20:02:27.979Z,24.80
2022-08-11T20:05:14.271Z,24.70
2022-08-11T20:08:00.892Z,24.60
2022-08-11T20:10:49.330Z,24.40
2022-08-11T20:13:36.116Z,24.40
2022-08-11T20:16:29.262Z,24.20
2022-08-11T20:19:15.540Z,24.10
2022-08-11T20:22:05.915Z,24.00
2022-08-11T20:24:56.687Z,24.00
2022-08-11T20:27:43.729Z,23.90
2022-08-11T20:30:29.871Z,23.80
2022-08-11T20:33:16.737Z,23.70
2022-08-11T20:36:04.825Z,23.70
2022-08-11T20:38:51.742Z,23.70
2022-08-11T20:41:58.756Z,23.60
2022-08-11T20:44:46.110Z,23.60
2022-08-11T20:47:34.001Z,23.50
2022-08-11T20:50:40.619Z,23.50
2022-08-11T20:53:27.946Z,23.40
2022-08-11T20:56:14.325Z,23.30
2022-08-11T20:59:14.408Z,23.30
2022-08-11T21:02:09.902Z,23.20
2022-08-11T21:04:57.519Z,23.20
2022-08-11T21:07:56.866Z,23.10
2022-08-11T21:10:51.526Z,23.00
2022-08-11T21:13:40.195Z,22.90
2022-08-11T21:16:27.667Z,22.90
2022-08-11T21:20:00.388Z,22.80
2022-08-11T21:22:30.171Z,22.70
2022-08-11T21:25:17.709Z,22.70
2022-08-11T21:28:06.359Z,22.60
2022-08-11T21:30:57.496Z,22.60
2022-08-11T21:33:46.565Z,22.50
2022-08-11T21:36:33.459Z,22.40
2022-08-11T21:39:24.764Z,22.30
2022-08-11T21:42:15.236Z,22.30
2022-08-11T21:45:01.947Z,22.20
2022-08-11T21:47:49.486Z,22.20
2022-08-11T21:50:47.721Z,22.20
2022-08-11T21:53:34.389Z,22.10
2022-08-11T21:56:21.904Z,22.10
2022-08-11T21:59:12.521Z,22.00
2022-08-11T22:01:59.051Z,21.90
2022-08-11T22:04:46.076Z,21.80
2022-08-11T22:07:34.388Z,21.80
2022-08-11T22:10:36.997Z,21.70
2022-08-11T22:13:31.580Z,21.70
2022-08-11T22:16:18.550Z,21.60
2022-08-11T22:19:05.357Z,21.50
2022-08-11T22:22:02.546Z,21.50
2022-08-11T22:24:51.203Z,21.40
2022-08-11T22:27:37.499Z,21.30
2022-08-11T22:30:24.724Z,21.20
2022-08-11T22:33:10.939Z,21.10
2022-08-11T22:35:58.117Z,21.10
2022-08-11T22:38:45.388Z,21.00
2022-08-11T22:41:31.831Z,20.90
2022-08-11T22:44:18.120Z,20.80
2022-08-11T22:47:05.089Z,20.80
2022-08-11T22:49:58.186Z,20.70
2022-08-11T22:52:46.746Z,20.60
2022-08-11T22:55:34.131Z,20.50
2022-08-11T22:58:20.925Z,20.50
2022-08-11T23:01:07.703Z,20.40
2022-08-11T23:03:54.071Z,20.30
2022-08-11T23:06:40.489Z,20.30
2022-08-11T23:09:29.059Z,20.20
2022-08-11T23:12:16.012Z,20.20
2022-08-11T23:15:02.899Z,20.10
2022-08-11T23:17:50.481Z,20.00
2022-08-11T23:20:41.511Z,20.00
2022-08-11T23:23:35.514Z,20.00
2022-08-11T23:26:21.883Z,19.90
2022-08-11T23:29:07.766Z,19.80
2022-08-11T23:31:54.774Z,19.80
2022-08-11T23:35:03.890Z,19.70
2022-08-11T23:37:49.160Z,19.70
2022-08-11T23:40:35.029Z,19.60
2022-08-11T23:43:21.752Z,19.60
2022-08-11T23:46:07.842Z,19.50
2022-08-11T23:48:55.516Z,19.50
2022-08-11T23:51:41.721Z,19.40
2022-08-11T23:54:31.577Z,19.30
2022-08-11T23:57:21.608Z,19.30
